createdAt,value
2019-04-20T00:01:01.569Z,99.30
2019-04-20T00:03:38.119Z,99.30
2019-04-20T00:06:03.538Z,99.90
2019-04-20T00:08:36.517Z,99.90
2019-04-20T00:11:11.674Z,99.90
2019-04-20T00:13:48.793Z,99.90
2019-04-20T00:16:08.225Z,99.90
2019-04-20T00:18:43.017Z,99.90
2019-04-20T00:21:28.879Z,99.90
2019-04-20T00:24:06.985Z,99.90
2019-04-20T00:27:04.876Z,99.90
2019-04-20T00:29:21.687Z,99.90
2019-04-20T00:31:45.560Z,99.90
2019-04-20T00:34:13.872Z,99.90
2019-04-20T00:36:39.071Z,99.90
2019-04-20T00:39:11.405Z,99.90
2019-04-20T00:41:49.900Z,99.90
2019-04-20T00:44:17.135Z,99.90
2019-04-20T00:46:58.748Z,99.90
2019-04-20T00:49:30.588Z,99.90
2019-04-20T00:52:12.770Z,99.90
2019-04-20T00:54:18.042Z,99.90
2019-04-20T00:56:47.923Z,99.90
2019-04-20T00:59:31.629Z,99.90
2019-04-20T01:02:09.064Z,99.90
2019-04-20T01:04:42.763Z,99.90
2019-04-20T01:07:17.666Z,99.90
2019-04-20T01:09:54.262Z,99.90
2019-04-20T01:12:28.004Z,99.90
2019-04-20T01:15:00.336Z,99.90
2019-04-20T01:17:26.492Z,99.90
2019-04-20T01:19:56.172Z,99.90
2019-04-20T01:22:28.610Z,99.90
2019-04-20T01:25:07.873Z,99.90
2019-04-20T01:27:42.515Z,99.90
2019-04-20T01:30:10.595Z,99.90
2019-04-20T01:32:50.664Z,99.90
2019-04-20T01:35:21.847Z,99.90
2019-04-20T01:37:52.983Z,99.90
2019-04-20T01:40:09.930Z,99.90
2019-04-20T01:42:40.378Z,99.90
2019-04-20T01:45:19.122Z,99.90
2019-04-20T01:47:46.158Z,99.90
2019-04-20T01:50:17.062Z,99.90
2019-04-20T01:52:53.846Z,99.90
2019-04-20T01:55:38.653Z,99.90
2019-04-20T01:58:17.598Z,99.90
2019-04-20T02:00:36.557Z,99.90
2019-04-20T02:03:06.962Z,99.90
2019-04-20T02:05:38.642Z,99.90
2019-04-20T02:08:13.867Z,99.90
2019-04-20T02:10:46.817Z,99.90
2019-04-20T02:13:11.176Z,99.90
2019-04-20T02:15:47.912Z,99.90
2019-04-20T02:18:29.707Z,99.90
2019-04-20T02:21:00.234Z,99.90
2019-04-20T02:23:29.283Z,99.90
2019-04-20T02:25:46.285Z,99.90
2019-04-20T02:28:34.689Z,99.90
2019-04-20T02:31:26.932Z,99.90
2019-04-20T02:33:58.977Z,99.90
2019-04-20T02:36:33.662Z,99.90
2019-04-20T02:41:35.763Z,99.90
2019-04-20T02:44:24.142Z,99.90
2019-04-20T02:46:37.265Z,99.90
2019-04-20T02:49:26.332Z,99.90
2019-04-20T02:51:41.976Z,99.90
2019-04-20T02:59:42.291Z,99.90
2019-04-20T03:01:30.941Z,99.90
2019-04-20T03:03:50.438Z,99.90
2019-04-20T03:06:26.462Z,99.90
2019-04-20T03:09:10.853Z,99.90
2019-04-20T03:11:46.488Z,99.90
2019-04-20T03:14:09.592Z,99.90
2019-04-20T03:16:38.722Z,99.90
2019-04-20T03:19:14.132Z,99.90
2019-04-20T03:21:54.169Z,99.90
2019-04-20T03:24:28.238Z,99.90
2019-04-20T03:26:48.079Z,99.90
2019-04-20T03:29:15.870Z,99.90
2019-04-20T03:32:44.551Z,99.90
2019-04-20T03:35:03.945Z,99.90
2019-04-20T03:37:22.226Z,99.90
2019-04-20T03:39:42.990Z,99.90
2019-04-20T03:41:58.833Z,99.90
2019-04-20T03:44:32.172Z,99.90
2019-04-20T03:47:05.233Z,99.90
2019-04-20T03:49:54.851Z,99.90
2019-04-20T03:52:27.427Z,99.90
2019-04-20T03:55:16.123Z,99.90
2019-04-20T03:57:57.170Z,99.90
2019-04-20T04:00:36.237Z,99.90
2019-04-20T04:03:21.695Z,99.90
2019-04-20T04:05:51.925Z,99.90
2019-04-20T04:08:21.285Z,99.90
2019-04-20T04:11:04.794Z,99.90
2019-04-20T04:13:18.745Z,99.90
2019-04-20T04:15:55.568Z,99.90
2019-04-20T04:18:29.724Z,99.90
2019-04-20T04:21:03.120Z,99.90
2019-04-20T04:23:44.826Z,99.90
2019-04-20T04:26:12.905Z,99.90
2019-04-20T04:28:43.312Z,99.90
2019-04-20T04:31:16.559Z,99.90
2019-04-20T04:34:02.564Z,99.90
2019-04-20T04:36:19.383Z,99.90
2019-04-20T04:39:08.830Z,99.90
2019-04-20T04:43:54.244Z,99.90
2019-04-20T04:46:07.895Z,99.90
2019-04-20T04:48:42.711Z,99.90
2019-04-20T04:51:15.814Z,99.90
2019-04-20T04:53:50.560Z,99.90
2019-04-20T04:56:16.201Z,99.90
2019-04-20T04:58:42.740Z,99.90
2019-04-20T05:01:18.553Z,99.90
2019-04-20T05:04:11.522Z,99.90
2019-04-20T05:06:31.780Z,99.90
2019-04-20T05:08:53.066Z,99.90
2019-04-20T05:11:19.597Z,99.90
2019-04-20T05:13:57.853Z,99.90
2019-04-20T05:16:42.236Z,99.90
2019-04-20T05:19:13.483Z,99.90
2019-04-20T05:21:58.646Z,99.90
2019-04-20T05:24:27.021Z,99.90
2019-04-20T05:27:01.925Z,99.90
2019-04-20T05:29:17.709Z,99.90
2019-04-20T05:31:49.368Z,99.90
2019-04-20T05:34:43.652Z,99.90
2019-04-20T05:37:17.354Z,99.90
2019-04-20T05:39:42.778Z,99.90
2019-04-20T05:42:13.325Z,99.90
2019-04-20T05:44:44.271Z,99.90
2019-04-20T05:47:13.655Z,99.90
2019-04-20T05:49:40.354Z,99.90
2019-04-20T05:52:31.588Z,99.90
2019-04-20T05:54:51.201Z,99.90
2019-04-20T05:57:25.167Z,99.90
2019-04-20T05:59:57.205Z,99.90
2019-04-20T06:02:25.037Z,99.90
2019-04-20T06:05:08.489Z,99.90
2019-04-20T06:07:24.966Z,99.90
2019-04-20T06:09:59.440Z,99.90
2019-04-20T06:12:26.335Z,99.90
2019-04-20T06:14:52.038Z,99.90
2019-04-20T06:17:31.837Z,99.90
2019-04-20T06:20:09.008Z,99.90
2019-04-20T06:22:59.838Z,99.90
2019-04-20T06:25:33.402Z,99.90
2019-04-20T06:27:46.035Z,99.90
2019-04-20T06:30:13.987Z,99.90
2019-04-20T06:33:45.125Z,99.90
2019-04-20T06:36:16.355Z,99.90
2019-04-20T06:38:43.128Z,99.90
2019-04-20T06:41:05.327Z,99.90
2019-04-20T06:43:36.888Z,99.90
2019-04-20T06:46:09.825Z,99.90
2019-04-20T06:48:40.262Z,99.90
2019-04-20T06:51:03.515Z,99.90
2019-04-20T06:53:45.266Z,99.90
2019-04-20T06:56:15.610Z,98.20
2019-04-20T06:58:49.835Z,96.20
2019-04-20T07:01:15.266Z,92.60
2019-04-20T07:04:04.236Z,90.10
2019-04-20T07:06:34.093Z,91.90
2019-04-20T07:08:58.620Z,92.30
2019-04-20T07:11:24.087Z,91.80
2019-04-20T07:13:42.830Z,85.60
2019-04-20T07:16:37.954Z,90.70
2019-04-20T07:19:06.435Z,80.20
2019-04-20T07:22:07.007Z,78.70
2019-04-20T07:24:30.659Z,77.60
2019-04-20T07:27:00.752Z,78.80
2019-04-20T07:29:36.243Z,79.60
2019-04-20T07:32:00.185Z,70.40
2019-04-20T07:34:33.478Z,72.50
2019-04-20T07:37:27.918Z,72.30
2019-04-20T07:39:40.722Z,71.90
2019-04-20T07:42:08.175Z,74.40
2019-04-20T07:44:44.005Z,65.50
2019-04-20T07:47:13.885Z,68.40
2019-04-20T07:49:44.320Z,69.60
2019-04-20T07:51:53.851Z,63.00
2019-04-20T07:55:03.515Z,65.60
2019-04-20T07:57:14.580Z,63.60
2019-04-20T07:59:39.758Z,64.00
2019-04-20T08:02:33.872Z,66.40
2019-04-20T08:04:53.840Z,70.20
2019-04-20T08:07:09.498Z,65.90
2019-04-20T08:09:46.539Z,62.80
2019-04-20T08:12:51.581Z,65.00
2019-04-20T08:15:27.377Z,68.10
2019-04-20T08:17:50.956Z,64.90
2019-04-20T08:20:16.181Z,64.40
2019-04-20T08:22:53.204Z,60.10
2019-04-20T08:25:15.339Z,61.60
2019-04-20T08:27:50.973Z,61.80
2019-04-20T08:30:57.185Z,62.40
2019-04-20T08:33:36.424Z,60.50
2019-04-20T08:36:10.804Z,65.60
2019-04-20T08:41:02.963Z,61.00
2019-04-20T08:46:17.829Z,57.30
2019-04-20T08:48:46.674Z,59.50
2019-04-20T08:51:12.266Z,59.60
2019-04-20T08:53:47.115Z,57.40
2019-04-20T08:56:11.939Z,58.30
2019-04-20T08:58:31.566Z,59.10
2019-04-20T09:01:04.878Z,57.30
2019-04-20T09:03:48.757Z,57.20
2019-04-20T09:06:21.611Z,56.20
2019-04-20T09:08:48.505Z,55.30
2019-04-20T09:11:23.234Z,55.60
2019-04-20T09:13:43.132Z,54.60
2019-04-20T09:16:10.950Z,57.20
2019-04-20T09:18:52.416Z,55.60
2019-04-20T09:21:27.138Z,56.30
2019-04-20T09:24:16.219Z,58.60
2019-04-20T09:26:43.336Z,57.20
2019-04-20T09:29:07.121Z,55.80
2019-04-20T09:31:43.691Z,55.70
2019-04-20T09:34:20.555Z,55.30
2019-04-20T09:36:49.811Z,55.70
2019-04-20T09:39:30.396Z,55.60
2019-04-20T09:42:02.165Z,56.50
2019-04-20T09:44:38.680Z,57.00
2019-04-20T09:47:05.039Z,56.00
2019-04-20T09:49:46.010Z,54.80
2019-04-20T09:52:17.270Z,54.90
2019-04-20T09:54:55.248Z,54.60
2019-04-20T09:57:30.912Z,56.70
2019-04-20T09:59:57.464Z,53.30
2019-04-20T10:02:20.134Z,53.90
2019-04-20T10:04:42.304Z,53.60
2019-04-20T10:07:17.593Z,54.10
2019-04-20T10:09:45.608Z,53.10
2019-04-20T10:12:15.714Z,55.50
2019-04-20T10:14:46.750Z,52.40
2019-04-20T10:17:17.914Z,52.40
2019-04-20T10:19:48.339Z,54.60
2019-04-20T10:22:18.428Z,51.90
2019-04-20T10:24:50.327Z,50.00
2019-04-20T10:27:20.827Z,51.20
2019-04-20T10:29:51.468Z,50.80
2019-04-20T10:32:25.122Z,50.90
2019-04-20T10:34:52.750Z,53.50
2019-04-20T10:37:24.168Z,49.70
2019-04-20T10:39:54.447Z,52.70
2019-04-20T10:42:24.225Z,53.70
2019-04-20T10:44:57.077Z,52.80
2019-04-20T10:47:25.355Z,51.80
2019-04-20T10:49:56.483Z,52.20
2019-04-20T10:52:27.751Z,50.40
2019-04-20T10:54:58.668Z,48.00
2019-04-20T10:57:28.410Z,51.50
2019-04-20T10:59:59.531Z,51.10
2019-04-20T11:02:29.850Z,49.00
2019-04-20T11:04:59.547Z,46.70
2019-04-20T11:07:30.387Z,47.80
2019-04-20T11:10:07.889Z,50.20
2019-04-20T11:12:32.483Z,48.50
2019-04-20T11:15:02.951Z,46.30
2019-04-20T11:17:33.408Z,45.70
2019-04-20T11:20:03.471Z,40.20
2019-04-20T11:22:33.108Z,42.90
2019-04-20T11:25:04.296Z,41.50
2019-04-20T11:27:34.204Z,45.80
2019-04-20T11:30:06.069Z,45.80
2019-04-20T11:32:36.024Z,46.30
2019-04-20T11:35:11.092Z,46.10
2019-04-20T11:37:37.747Z,45.10
2019-04-20T11:40:08.684Z,43.30
2019-04-20T11:42:39.382Z,46.50
2019-04-20T11:45:10.893Z,45.70
2019-04-20T11:47:40.619Z,45.80
2019-04-20T11:50:11.425Z,44.80
2019-04-20T11:52:44.584Z,43.90
2019-04-20T11:55:12.696Z,42.30
2019-04-20T11:57:43.156Z,45.10
2019-04-20T12:00:17.236Z,43.10
2019-04-20T12:03:15.013Z,43.10
2019-04-20T12:05:42.844Z,38.10
2019-04-20T12:08:09.383Z,36.60
2019-04-20T12:10:39.278Z,36.30
2019-04-20T12:13:10.203Z,34.10
2019-04-20T12:15:41.270Z,35.40
2019-04-20T12:18:11.636Z,41.00
2019-04-20T12:20:41.359Z,39.70
2019-04-20T12:23:12.687Z,39.20
2019-04-20T12:25:43.208Z,42.20
2019-04-20T12:28:13.749Z,42.10
2019-04-20T12:30:43.864Z,40.70
2019-04-20T12:33:13.712Z,41.00
2019-04-20T12:35:44.475Z,41.00
2019-04-20T12:38:14.901Z,40.80
2019-04-20T12:40:44.548Z,41.50
2019-04-20T12:43:15.158Z,40.50
2019-04-20T12:45:45.051Z,37.30
2019-04-20T12:48:15.616Z,37.70
2019-04-20T12:50:45.718Z,38.80
2019-04-20T12:53:16.913Z,41.00
2019-04-20T12:55:46.688Z,40.10
2019-04-20T12:58:16.749Z,39.10
2019-04-20T13:00:49.683Z,42.00
2019-04-20T13:03:21.288Z,43.30
2019-04-20T13:05:52.003Z,39.50
2019-04-20T13:08:29.589Z,38.20
2019-04-20T13:10:55.726Z,40.80
2019-04-20T13:13:28.192Z,40.00
2019-04-20T13:16:14.704Z,44.20
2019-04-20T13:18:47.500Z,41.90
2019-04-20T13:21:17.212Z,39.10
2019-04-20T13:23:47.116Z,41.80
2019-04-20T13:26:17.469Z,40.80
2019-04-20T13:28:47.193Z,40.30
2019-04-20T13:31:17.796Z,39.20
2019-04-20T13:33:47.699Z,40.90
2019-04-20T13:36:17.337Z,36.00
2019-04-20T13:38:47.968Z,40.00
2019-04-20T13:41:17.912Z,37.50
2019-04-20T13:43:48.104Z,39.00
2019-04-20T13:46:18.860Z,40.40
2019-04-20T13:48:48.915Z,38.80
2019-04-20T13:51:18.961Z,35.80
2019-04-20T13:53:49.249Z,36.40
2019-04-20T13:56:19.912Z,40.70
2019-04-20T13:59:03.772Z,36.40
2019-04-20T14:01:35.172Z,39.20
2019-04-20T14:04:22.998Z,37.30
2019-04-20T14:06:53.635Z,38.50
2019-04-20T14:09:23.607Z,34.00
2019-04-20T14:11:53.647Z,38.90
2019-04-20T14:14:23.507Z,35.90
2019-04-20T14:16:53.177Z,37.80
2019-04-20T14:19:23.227Z,42.30
2019-04-20T14:21:54.148Z,40.50
2019-04-20T14:24:24.819Z,35.70
2019-04-20T14:26:54.811Z,32.80
2019-04-20T14:29:25.172Z,34.40
2019-04-20T14:31:55.674Z,38.70
2019-04-20T14:34:26.912Z,37.80
2019-04-20T14:36:57.118Z,37.10
2019-04-20T14:39:27.941Z,40.60
2019-04-20T14:41:58.232Z,38.30
2019-04-20T14:44:27.954Z,38.10
2019-04-20T14:46:58.168Z,37.40
2019-04-20T14:49:28.484Z,35.10
2019-04-20T14:51:59.819Z,39.90
2019-04-20T14:54:29.666Z,37.80
2019-04-20T14:56:59.380Z,35.90
2019-04-20T14:59:31.668Z,38.70
2019-04-20T15:02:03.088Z,39.90
2019-04-20T15:04:34.629Z,38.10
2019-04-20T15:07:04.758Z,38.60
2019-04-20T15:09:37.030Z,38.90
2019-04-20T15:12:06.743Z,38.80
2019-04-20T15:14:36.784Z,38.80
2019-04-20T15:17:08.821Z,37.50
2019-04-20T15:19:57.235Z,39.90
2019-04-20T15:22:31.686Z,38.40
2019-04-20T15:25:01.449Z,38.00
2019-04-20T15:27:31.084Z,40.70
2019-04-20T15:30:00.730Z,43.30
2019-04-20T15:32:31.356Z,41.50
2019-04-20T15:35:01.140Z,39.00
2019-04-20T15:37:30.968Z,39.70
2019-04-20T15:40:01.205Z,39.60
2019-04-20T15:42:30.972Z,39.50
2019-04-20T15:45:01.135Z,37.20
2019-04-20T15:47:31.980Z,39.80
2019-04-20T15:50:02.268Z,40.00
2019-04-20T15:52:37.656Z,38.70
2019-04-20T15:55:11.830Z,39.10
2019-04-20T15:57:36.484Z,39.20
2019-04-20T16:00:08.757Z,40.00
2019-04-20T16:02:57.082Z,39.50
2019-04-20T16:05:31.190Z,40.60
2019-04-20T16:08:05.175Z,39.90
2019-04-20T16:10:34.724Z,40.30
2019-04-20T16:13:15.959Z,40.70
2019-04-20T16:15:35.951Z,40.60
2019-04-20T16:18:05.533Z,39.90
2019-04-20T16:20:47.325Z,39.20
2019-04-20T16:23:06.909Z,39.60
2019-04-20T16:25:47.811Z,40.80
2019-04-20T16:28:17.574Z,40.10
2019-04-20T16:30:47.555Z,39.80
2019-04-20T16:33:18.598Z,42.00
2019-04-20T16:35:48.308Z,41.70
2019-04-20T16:38:18.285Z,40.50
2019-04-20T16:40:48.385Z,40.60
2019-04-20T16:43:27.552Z,40.70
2019-04-20T16:45:49.339Z,41.40
2019-04-20T16:48:19.941Z,41.70
2019-04-20T16:50:50.934Z,41.60
2019-04-20T16:53:20.796Z,42.00
2019-04-20T16:55:50.621Z,43.90
2019-04-20T16:58:20.362Z,41.80
2019-04-20T17:00:50.085Z,41.20
2019-04-20T17:03:22.907Z,41.40
2019-04-20T17:05:51.427Z,41.70
2019-04-20T17:08:21.209Z,42.50
2019-04-20T17:10:51.703Z,43.90
2019-04-20T17:13:34.084Z,43.00
2019-04-20T17:15:52.745Z,41.90
2019-04-20T17:18:23.564Z,42.00
2019-04-20T17:20:54.586Z,41.60
2019-04-20T17:23:25.413Z,42.10
2019-04-20T17:25:57.819Z,42.60
2019-04-20T17:28:29.348Z,43.40
2019-04-20T17:31:15.888Z,42.70
2019-04-20T17:33:58.986Z,42.10
2019-04-20T17:36:23.354Z,41.30
2019-04-20T17:38:54.483Z,43.10
2019-04-20T17:41:43.163Z,43.80
2019-04-20T17:44:09.544Z,45.20
2019-04-20T17:46:37.177Z,45.20
2019-04-20T17:49:09.401Z,44.40
2019-04-20T17:51:49.087Z,45.30
2019-04-20T17:54:12.978Z,45.10
2019-04-20T17:56:42.645Z,45.00
2019-04-20T17:59:12.554Z,44.20
2019-04-20T18:02:09.759Z,43.80
2019-04-20T18:04:54.903Z,44.10
2019-04-20T18:07:26.976Z,45.00
2019-04-20T18:09:59.041Z,44.70
2019-04-20T18:12:07.600Z,45.90
2019-04-20T18:14:48.085Z,46.00
2019-04-20T18:17:22.015Z,45.40
2019-04-20T18:19:47.083Z,44.30
2019-04-20T18:22:16.776Z,43.90
2019-04-20T18:25:10.430Z,44.00
2019-04-20T18:27:39.934Z,45.00
2019-04-20T18:30:07.693Z,45.00
2019-04-20T18:32:29.091Z,46.30
2019-04-20T18:35:06.955Z,45.20
2019-04-20T18:37:34.559Z,47.50
2019-04-20T18:40:11.415Z,50.90
2019-04-20T18:42:42.101Z,48.50
2019-04-20T18:45:28.377Z,49.10
2019-04-20T18:48:02.752Z,50.80
2019-04-20T18:50:22.395Z,51.20
2019-04-20T18:52:45.396Z,53.50
2019-04-20T18:55:22.178Z,53.50
2019-04-20T18:57:47.025Z,53.20
2019-04-20T19:00:26.160Z,54.50
2019-04-20T19:02:53.583Z,54.10
2019-04-20T19:05:21.957Z,55.50
2019-04-20T19:07:59.158Z,56.50
2019-04-20T19:10:28.823Z,56.90
2019-04-20T19:13:01.565Z,56.10
2019-04-20T19:15:51.257Z,56.00
2019-04-20T19:18:42.732Z,55.40
2019-04-20T19:21:04.389Z,56.00
2019-04-20T19:23:36.606Z,55.90
2019-04-20T19:26:11.959Z,56.30
2019-04-20T19:28:44.464Z,55.30
2019-04-20T19:31:25.252Z,56.10
2019-04-20T19:34:01.830Z,56.70
2019-04-20T19:36:23.415Z,57.30
2019-04-20T19:38:58.030Z,55.70
2019-04-20T19:41:29.797Z,54.70
2019-04-20T19:43:57.302Z,55.20
2019-04-20T19:46:46.354Z,52.70
2019-04-20T19:48:56.679Z,51.40
2019-04-20T19:51:40.861Z,49.50
2019-04-20T19:54:13.210Z,51.30
2019-04-20T19:56:58.284Z,50.20
2019-04-20T19:59:23.342Z,51.60
2019-04-20T20:01:45.428Z,53.00
2019-04-20T20:04:15.768Z,51.60
2019-04-20T20:06:49.678Z,49.10
2019-04-20T20:09:18.238Z,48.20
2019-04-20T20:11:49.809Z,47.00
2019-04-20T20:14:30.600Z,47.40
2019-04-20T20:17:08.858Z,46.30
2019-04-20T20:19:44.632Z,46.30
2019-04-20T20:22:07.021Z,45.20
2019-04-20T20:24:25.197Z,44.90
2019-04-20T20:27:02.113Z,44.40
2019-04-20T20:29:34.268Z,44.70
2019-04-20T20:32:10.383Z,44.50
2019-04-20T20:34:36.395Z,44.10
2019-04-20T20:37:06.473Z,43.30
2019-04-20T20:39:35.127Z,42.80
2019-04-20T20:42:15.305Z,42.60
2019-04-20T20:44:47.900Z,44.10
2019-04-20T20:47:31.305Z,43.80
2019-04-20T20:50:04.048Z,43.10
2019-04-20T20:52:29.009Z,43.40
2019-04-20T20:54:56.323Z,41.80
2019-04-20T20:57:22.400Z,40.60
2019-04-20T20:59:55.291Z,40.80
2019-04-20T21:02:47.207Z,40.40
2019-04-20T21:05:11.658Z,41.10
2019-04-20T21:07:42.657Z,42.10
2019-04-20T21:10:15.338Z,42.00
2019-04-20T21:12:52.023Z,42.40
2019-04-20T21:15:20.972Z,41.90
2019-04-20T21:18:08.530Z,40.70
2019-04-20T21:20:38.140Z,40.80
2019-04-20T21:23:10.993Z,40.30
2019-04-20T21:25:34.531Z,41.50
2019-04-20T21:28:00.629Z,42.10
2019-04-20T21:30:35.102Z,41.70
2019-04-20T21:33:03.864Z,41.20
2019-04-20T21:35:39.338Z,39.70
2019-04-20T21:38:08.470Z,40.60
2019-04-20T21:40:40.137Z,39.70
2019-04-20T21:43:09.017Z,40.70
2019-04-20T21:45:39.422Z,40.10
2019-04-20T21:48:31.833Z,40.60
2019-04-20T21:50:59.822Z,43.40
2019-04-20T21:53:18.491Z,41.10
2019-04-20T21:55:44.144Z,41.30
2019-04-20T21:58:14.096Z,42.20
2019-04-20T22:00:59.587Z,44.20
2019-04-20T22:03:20.408Z,45.70
2019-04-20T22:05:52.564Z,50.90
2019-04-20T22:08:24.181Z,51.20
2019-04-20T22:10:55.359Z,53.00
2019-04-20T22:13:42.063Z,53.60
2019-04-20T22:16:12.524Z,56.10
2019-04-20T22:19:00.445Z,57.80
2019-04-20T22:21:21.855Z,54.50
2019-04-20T22:24:00.578Z,54.00
2019-04-20T22:26:26.726Z,52.50
2019-04-20T22:28:47.931Z,54.30
2019-04-20T22:31:18.337Z,52.60
2019-04-20T22:33:48.845Z,51.90
2019-04-20T22:36:20.203Z,50.40
2019-04-20T22:39:09.562Z,48.20
2019-04-20T22:41:47.966Z,50.70
2019-04-20T22:44:18.513Z,50.00
2019-04-20T22:46:45.817Z,53.30
2019-04-20T22:49:32.974Z,53.90
2019-04-20T22:51:58.863Z,55.10
2019-04-20T22:54:37.973Z,55.60
2019-04-20T22:57:02.431Z,54.60
2019-04-20T22:59:25.062Z,54.60
2019-04-20T23:01:58.227Z,57.60
2019-04-20T23:04:24.727Z,60.20
2019-04-20T23:06:55.859Z,60.00
2019-04-20T23:09:26.786Z,60.20
2019-04-20T23:12:03.546Z,63.30
2019-04-20T23:14:28.798Z,58.70
2019-04-20T23:16:59.798Z,66.00
2019-04-20T23:19:38.210Z,71.50
2019-04-20T23:22:04.765Z,68.30
2019-04-20T23:24:33.168Z,66.10
2019-04-20T23:27:04.970Z,71.80
2019-04-20T23:29:37.937Z,61.90
2019-04-20T23:32:09.805Z,75.10
2019-04-20T23:34:39.014Z,77.40
2019-04-20T23:37:16.065Z,85.70
2019-04-20T23:39:41.591Z,88.50
2019-04-20T23:42:14.100Z,91.10
2019-04-20T23:44:57.707Z,89.60
2019-04-20T23:47:27.898Z,92.10
2019-04-20T23:50:16.361Z,92.20
2019-04-20T23:52:57.949Z,93.10
2019-04-20T23:55:05.996Z,92.80
2019-04-20T23:57:33.709Z,93.80
